sensor_id;sensor_type;location;lat;lon;timestamp;temperature;humidity
4354;DHT22;11018;51.258;6.806;2023-03-23T00:01:28;13.60;55.70
4354;DHT22;11018;51.258;6.806;2023-03-23T00:03:57;13.50;56.80
4354;DHT22;11018;51.258;6.806;2023-03-23T00:06:25;13.50;57.20
4354;DHT22;11018;51.258;6.806;2023-03-23T00:08:53;13.50;58.50
4354;DHT22;11018;51.258;6.806;2023-03-23T00:11:27;13.50;57.20
4354;DHT22;11018;51.258;6.806;2023-03-23T00:13:58;13.60;56.50
4354;DHT22;11018;51.258;6.806;2023-03-23T00:16:27;13.50;56.50
4354;DHT22;11018;51.258;6.806;2023-03-23T00:19:07;13.50;56.60
4354;DHT22;11018;51.258;6.806;2023-03-23T00:21:35;13.60;56.20
4354;DHT22;11018;51.258;6.806;2023-03-23T00:26:28;13.50;57.20
4354;DHT22;11018;51.258;6.806;2023-03-23T00:28:55;13.50;58.30
4354;DHT22;11018;51.258;6.806;2023-03-23T00:31:21;13.40;57.90
4354;DHT22;11018;51.258;6.806;2023-03-23T00:33:47;13.50;57.60
4354;DHT22;11018;51.258;6.806;2023-03-23T00:36:13;13.50;57.10
4354;DHT22;11018;51.258;6.806;2023-03-23T00:38:40;13.60;57.00
4354;DHT22;11018;51.258;6.806;2023-03-23T00:41:07;13.50;57.20
4354;DHT22;11018;51.258;6.806;2023-03-23T00:43:33;13.50;57.40
4354;DHT22;11018;51.258;6.806;2023-03-23T00:46:01;13.50;57.10
4354;DHT22;11018;51.258;6.806;2023-03-23T00:48:29;13.60;56.40
4354;DHT22;11018;51.258;6.806;2023-03-23T00:50:55;13.60;56.10
4354;DHT22;11018;51.258;6.806;2023-03-23T00:53:21;13.50;57.90
4354;DHT22;11018;51.258;6.806;2023-03-23T00:55:48;13.40;58.90
4354;DHT22;11018;51.258;6.806;2023-03-23T00:58:15;13.40;58.20
4354;DHT22;11018;51.258;6.806;2023-03-23T01:00:41;13.50;57.80
4354;DHT22;11018;51.258;6.806;2023-03-23T01:03:07;13.50;58.40
4354;DHT22;11018;51.258;6.806;2023-03-23T01:05:35;13.50;57.30
4354;DHT22;11018;51.258;6.806;2023-03-23T01:08:01;13.50;56.90
4354;DHT22;11018;51.258;6.806;2023-03-23T01:10:27;13.50;57.20
4354;DHT22;11018;51.258;6.806;2023-03-23T01:12:54;13.50;56.80
4354;DHT22;11018;51.258;6.806;2023-03-23T01:15:20;13.60;56.90
4354;DHT22;11018;51.258;6.806;2023-03-23T01:17:46;13.50;57.60
4354;DHT22;11018;51.258;6.806;2023-03-23T01:20:14;13.40;57.60
4354;DHT22;11018;51.258;6.806;2023-03-23T01:22:41;13.50;57.20
4354;DHT22;11018;51.258;6.806;2023-03-23T01:25:08;13.50;57.10
4354;DHT22;11018;51.258;6.806;2023-03-23T01:27:34;13.40;56.60
4354;DHT22;11018;51.258;6.806;2023-03-23T01:30:00;13.40;57.40
4354;DHT22;11018;51.258;6.806;2023-03-23T01:32:26;13.50;56.50
4354;DHT22;11018;51.258;6.806;2023-03-23T01:34:52;13.60;56.40
4354;DHT22;11018;51.258;6.806;2023-03-23T01:37:17;13.60;56.30
4354;DHT22;11018;51.258;6.806;2023-03-23T01:39:45;13.50;57.10
4354;DHT22;11018;51.258;6.806;2023-03-23T01:42:11;13.40;58.50
4354;DHT22;11018;51.258;6.806;2023-03-23T01:47:02;13.40;60.80
4354;DHT22;11018;51.258;6.806;2023-03-23T01:49:33;13.30;63.10
4354;DHT22;11018;51.258;6.806;2023-03-23T01:52:09;13.30;63.70
4354;DHT22;11018;51.258;6.806;2023-03-23T01:54:36;13.20;65.00
4354;DHT22;11018;51.258;6.806;2023-03-23T01:57:06;13.20;65.10
4354;DHT22;11018;51.258;6.806;2023-03-23T01:59:34;13.20;66.00
4354;DHT22;11018;51.258;6.806;2023-03-23T02:02:01;13.10;68.00
4354;DHT22;11018;51.258;6.806;2023-03-23T02:04:27;13.00;70.20
4354;DHT22;11018;51.258;6.806;2023-03-23T02:06:55;13.00;69.60
4354;DHT22;11018;51.258;6.806;2023-03-23T02:09:26;13.00;71.80
4354;DHT22;11018;51.258;6.806;2023-03-23T02:11:53;12.80;74.70
4354;DHT22;11018;51.258;6.806;2023-03-23T02:14:20;12.70;77.10
4354;DHT22;11018;51.258;6.806;2023-03-23T02:34:00;12.70;79.00
4354;DHT22;11018;51.258;6.806;2023-03-23T02:36:50;12.60;79.60
4354;DHT22;11018;51.258;6.806;2023-03-23T02:39:19;12.60;78.50
4354;DHT22;11018;51.258;6.806;2023-03-23T02:41:54;12.70;77.90
4354;DHT22;11018;51.258;6.806;2023-03-23T02:44:22;12.50;79.50
4354;DHT22;11018;51.258;6.806;2023-03-23T02:46:49;12.60;80.00
4354;DHT22;11018;51.258;6.806;2023-03-23T02:49:16;12.50;80.40
4354;DHT22;11018;51.258;6.806;2023-03-23T02:51:44;12.40;82.40
4354;DHT22;11018;51.258;6.806;2023-03-23T02:54:12;12.40;83.30
4354;DHT22;11018;51.258;6.806;2023-03-23T02:56:39;12.30;85.10
4354;DHT22;11018;51.258;6.806;2023-03-23T02:59:05;12.30;85.00
4354;DHT22;11018;51.258;6.806;2023-03-23T03:04:11;12.40;83.90
4354;DHT22;11018;51.258;6.806;2023-03-23T03:07:02;12.30;84.00
4354;DHT22;11018;51.258;6.806;2023-03-23T03:09:39;12.30;84.10
4354;DHT22;11018;51.258;6.806;2023-03-23T03:12:31;12.30;84.20
4354;DHT22;11018;51.258;6.806;2023-03-23T03:15:06;12.30;82.70
4354;DHT22;11018;51.258;6.806;2023-03-23T03:17:36;12.40;80.50
4354;DHT22;11018;51.258;6.806;2023-03-23T03:20:07;12.40;79.10
4354;DHT22;11018;51.258;6.806;2023-03-23T03:22:38;12.40;79.30
4354;DHT22;11018;51.258;6.806;2023-03-23T03:25:08;12.50;78.80
4354;DHT22;11018;51.258;6.806;2023-03-23T03:27:34;12.40;78.60
4354;DHT22;11018;51.258;6.806;2023-03-23T03:30:03;12.50;77.20
4354;DHT22;11018;51.258;6.806;2023-03-23T03:32:36;12.60;76.40
4354;DHT22;11018;51.258;6.806;2023-03-23T03:35:04;12.60;76.00
4354;DHT22;11018;51.258;6.806;2023-03-23T03:37:35;12.60;74.00
4354;DHT22;11018;51.258;6.806;2023-03-23T03:40:04;12.70;74.30
4354;DHT22;11018;51.258;6.806;2023-03-23T03:42:36;12.70;72.60
4354;DHT22;11018;51.258;6.806;2023-03-23T03:45:02;12.70;73.40
4354;DHT22;11018;51.258;6.806;2023-03-23T03:47:28;12.70;73.10
4354;DHT22;11018;51.258;6.806;2023-03-23T03:49:53;12.50;74.50
4354;DHT22;11018;51.258;6.806;2023-03-23T03:52:19;12.60;74.80
4354;DHT22;11018;51.258;6.806;2023-03-23T03:54:45;12.50;74.90
4354;DHT22;11018;51.258;6.806;2023-03-23T03:57:11;12.50;74.80
4354;DHT22;11018;51.258;6.806;2023-03-23T03:59:37;12.60;73.70
4354;DHT22;11018;51.258;6.806;2023-03-23T04:02:02;12.50;74.50
4354;DHT22;11018;51.258;6.806;2023-03-23T04:04:29;12.50;75.10
4354;DHT22;11018;51.258;6.806;2023-03-23T04:06:54;12.50;73.60
4354;DHT22;11018;51.258;6.806;2023-03-23T04:09:20;12.40;75.30
4354;DHT22;11018;51.258;6.806;2023-03-23T04:11:46;12.40;74.90
4354;DHT22;11018;51.258;6.806;2023-03-23T04:14:12;12.30;74.40
4354;DHT22;11018;51.258;6.806;2023-03-23T04:16:37;12.50;72.50
4354;DHT22;11018;51.258;6.806;2023-03-23T04:19:03;12.60;70.90
4354;DHT22;11018;51.258;6.806;2023-03-23T04:21:29;12.60;71.10
4354;DHT22;11018;51.258;6.806;2023-03-23T04:23:58;12.70;69.40
4354;DHT22;11018;51.258;6.806;2023-03-23T04:26:27;12.70;68.90
4354;DHT22;11018;51.258;6.806;2023-03-23T04:28:54;12.60;70.60
4354;DHT22;11018;51.258;6.806;2023-03-23T04:31:22;12.60;70.80
4354;DHT22;11018;51.258;6.806;2023-03-23T04:33:51;12.70;68.70
4354;DHT22;11018;51.258;6.806;2023-03-23T04:36:18;12.70;69.40
4354;DHT22;11018;51.258;6.806;2023-03-23T04:38:43;12.80;68.00
4354;DHT22;11018;51.258;6.806;2023-03-23T04:41:09;12.90;67.20
4354;DHT22;11018;51.258;6.806;2023-03-23T04:43:34;12.80;67.90
4354;DHT22;11018;51.258;6.806;2023-03-23T04:46:07;12.80;68.20
4354;DHT22;11018;51.258;6.806;2023-03-23T04:48:36;12.80;67.30
4354;DHT22;11018;51.258;6.806;2023-03-23T04:51:04;12.80;67.10
4354;DHT22;11018;51.258;6.806;2023-03-23T04:53:31;12.80;66.70
4354;DHT22;11018;51.258;6.806;2023-03-23T04:55:56;12.90;65.40
4354;DHT22;11018;51.258;6.806;2023-03-23T04:58:22;12.90;64.90
4354;DHT22;11018;51.258;6.806;2023-03-23T05:00:50;12.90;64.80
4354;DHT22;11018;51.258;6.806;2023-03-23T05:03:17;13.10;62.50
4354;DHT22;11018;51.258;6.806;2023-03-23T05:05:43;13.10;61.40
4354;DHT22;11018;51.258;6.806;2023-03-23T05:08:13;13.10;62.10
4354;DHT22;11018;51.258;6.806;2023-03-23T05:10:38;13.20;60.90
4354;DHT22;11018;51.258;6.806;2023-03-23T05:13:04;13.10;61.00
4354;DHT22;11018;51.258;6.806;2023-03-23T05:15:30;13.20;60.00
4354;DHT22;11018;51.258;6.806;2023-03-23T05:17:56;13.20;60.30
4354;DHT22;11018;51.258;6.806;2023-03-23T05:20:22;13.20;59.40
4354;DHT22;11018;51.258;6.806;2023-03-23T05:22:48;13.20;60.60
4354;DHT22;11018;51.258;6.806;2023-03-23T05:25:15;13.10;61.20
4354;DHT22;11018;51.258;6.806;2023-03-23T05:27:44;13.20;60.40
4354;DHT22;11018;51.258;6.806;2023-03-23T05:30:14;13.20;58.90
4354;DHT22;11018;51.258;6.806;2023-03-23T05:32:44;13.30;58.20
4354;DHT22;11018;51.258;6.806;2023-03-23T05:35:11;13.20;57.90
4354;DHT22;11018;51.258;6.806;2023-03-23T05:37:37;13.20;57.90
4354;DHT22;11018;51.258;6.806;2023-03-23T05:40:04;13.20;59.00
4354;DHT22;11018;51.258;6.806;2023-03-23T05:42:34;13.20;57.70
4354;DHT22;11018;51.258;6.806;2023-03-23T05:45:00;13.30;57.60
4354;DHT22;11018;51.258;6.806;2023-03-23T05:47:27;13.30;57.70
4354;DHT22;11018;51.258;6.806;2023-03-23T05:49:52;13.30;57.40
4354;DHT22;11018;51.258;6.806;2023-03-23T05:52:19;13.30;57.10
4354;DHT22;11018;51.258;6.806;2023-03-23T05:54:45;13.40;56.40
4354;DHT22;11018;51.258;6.806;2023-03-23T05:57:11;13.40;55.50
4354;DHT22;11018;51.258;6.806;2023-03-23T05:59:37;13.40;56.00
4354;DHT22;11018;51.258;6.806;2023-03-23T06:02:04;13.30;56.60
4354;DHT22;11018;51.258;6.806;2023-03-23T06:04:29;13.40;56.50
4354;DHT22;11018;51.258;6.806;2023-03-23T06:06:55;13.40;54.80
4354;DHT22;11018;51.258;6.806;2023-03-23T06:09:21;13.40;54.50
4354;DHT22;11018;51.258;6.806;2023-03-23T06:11:48;13.40;54.50
4354;DHT22;11018;51.258;6.806;2023-03-23T06:14:14;13.40;55.20
4354;DHT22;11018;51.258;6.806;2023-03-23T06:16:40;13.30;55.10
4354;DHT22;11018;51.258;6.806;2023-03-23T06:19:05;13.50;52.50
4354;DHT22;11018;51.258;6.806;2023-03-23T06:21:31;13.50;51.40
4354;DHT22;11018;51.258;6.806;2023-03-23T06:23:57;13.50;52.90
4354;DHT22;11018;51.258;6.806;2023-03-23T06:26:28;13.60;51.20
4354;DHT22;11018;51.258;6.806;2023-03-23T06:28:56;13.70;50.20
4354;DHT22;11018;51.258;6.806;2023-03-23T06:31:23;13.60;50.30
4354;DHT22;11018;51.258;6.806;2023-03-23T06:33:49;13.40;51.10
4354;DHT22;11018;51.258;6.806;2023-03-23T06:36:15;13.50;51.20
4354;DHT22;11018;51.258;6.806;2023-03-23T06:38:42;13.60;50.70
4354;DHT22;11018;51.258;6.806;2023-03-23T06:41:07;13.60;50.80
4354;DHT22;11018;51.258;6.806;2023-03-23T06:43:34;13.80;46.50
4354;DHT22;11018;51.258;6.806;2023-03-23T06:46:01;13.80;47.00
4354;DHT22;11018;51.258;6.806;2023-03-23T06:48:27;13.70;48.20
4354;DHT22;11018;51.258;6.806;2023-03-23T06:50:53;13.60;48.60
4354;DHT22;11018;51.258;6.806;2023-03-23T06:53:19;13.70;48.50
4354;DHT22;11018;51.258;6.806;2023-03-23T06:55:46;13.60;48.90
4354;DHT22;11018;51.258;6.806;2023-03-23T06:58:12;13.80;46.90
4354;DHT22;11018;51.258;6.806;2023-03-23T07:00:38;13.80;46.80
4354;DHT22;11018;51.258;6.806;2023-03-23T07:03:05;13.90;46.20
4354;DHT22;11018;51.258;6.806;2023-03-23T07:05:32;13.90;45.90
4354;DHT22;11018;51.258;6.806;2023-03-23T07:07:58;13.90;45.10
4354;DHT22;11018;51.258;6.806;2023-03-23T07:10:23;13.80;45.80
4354;DHT22;11018;51.258;6.806;2023-03-23T07:12:50;13.90;45.10
4354;DHT22;11018;51.258;6.806;2023-03-23T07:15:15;13.90;45.20
4354;DHT22;11018;51.258;6.806;2023-03-23T07:17:41;13.90;44.70
4354;DHT22;11018;51.258;6.806;2023-03-23T07:20:07;13.90;44.60
4354;DHT22;11018;51.258;6.806;2023-03-23T07:22:34;14.00;44.20
4354;DHT22;11018;51.258;6.806;2023-03-23T07:25:00;14.10;44.20
4354;DHT22;11018;51.258;6.806;2023-03-23T07:27:26;14.20;43.50
4354;DHT22;11018;51.258;6.806;2023-03-23T07:29:51;14.20;42.60
4354;DHT22;11018;51.258;6.806;2023-03-23T07:32:17;14.30;43.00
4354;DHT22;11018;51.258;6.806;2023-03-23T07:34:43;14.30;42.20
4354;DHT22;11018;51.258;6.806;2023-03-23T07:37:08;14.30;41.90
4354;DHT22;11018;51.258;6.806;2023-03-23T07:39:35;14.20;43.40
4354;DHT22;11018;51.258;6.806;2023-03-23T07:42:01;14.30;41.50
4354;DHT22;11018;51.258;6.806;2023-03-23T07:44:27;14.40;41.40
4354;DHT22;11018;51.258;6.806;2023-03-23T07:46:52;14.30;41.50
4354;DHT22;11018;51.258;6.806;2023-03-23T07:49:19;14.30;41.10
4354;DHT22;11018;51.258;6.806;2023-03-23T07:51:45;14.30;40.70
4354;DHT22;11018;51.258;6.806;2023-03-23T07:54:11;14.40;39.20
4354;DHT22;11018;51.258;6.806;2023-03-23T07:56:37;14.60;39.30
4354;DHT22;11018;51.258;6.806;2023-03-23T07:59:05;14.50;39.40
4354;DHT22;11018;51.258;6.806;2023-03-23T08:01:32;14.50;39.00
4354;DHT22;11018;51.258;6.806;2023-03-23T08:03:57;14.60;37.90
4354;DHT22;11018;51.258;6.806;2023-03-23T08:06:26;14.60;37.80
4354;DHT22;11018;51.258;6.806;2023-03-23T08:08:53;14.60;37.90
4354;DHT22;11018;51.258;6.806;2023-03-23T08:11:19;14.80;37.10
4354;DHT22;11018;51.258;6.806;2023-03-23T08:13:46;14.90;36.60
4354;DHT22;11018;51.258;6.806;2023-03-23T08:16:12;15.10;35.40
4354;DHT22;11018;51.258;6.806;2023-03-23T08:18:39;15.10;34.80
4354;DHT22;11018;51.258;6.806;2023-03-23T08:21:06;15.10;34.50
4354;DHT22;11018;51.258;6.806;2023-03-23T08:23:35;15.30;33.80
4354;DHT22;11018;51.258;6.806;2023-03-23T08:26:05;15.30;33.50
4354;DHT22;11018;51.258;6.806;2023-03-23T08:28:32;15.30;33.20
4354;DHT22;11018;51.258;6.806;2023-03-23T08:30:58;15.50;32.60
4354;DHT22;11018;51.258;6.806;2023-03-23T08:33:23;15.60;32.40
4354;DHT22;11018;51.258;6.806;2023-03-23T08:35:56;15.60;32.10
4354;DHT22;11018;51.258;6.806;2023-03-23T08:38:23;15.40;32.40
4354;DHT22;11018;51.258;6.806;2023-03-23T08:40:49;15.30;32.20
4354;DHT22;11018;51.258;6.806;2023-03-23T08:43:16;15.30;32.50
4354;DHT22;11018;51.258;6.806;2023-03-23T08:45:41;15.30;32.80
4354;DHT22;11018;51.258;6.806;2023-03-23T08:48:07;15.40;31.80
4354;DHT22;11018;51.258;6.806;2023-03-23T08:50:33;15.40;32.90
4354;DHT22;11018;51.258;6.806;2023-03-23T08:52:59;15.30;32.90
4354;DHT22;11018;51.258;6.806;2023-03-23T08:55:25;15.30;32.50
4354;DHT22;11018;51.258;6.806;2023-03-23T08:57:51;15.30;33.30
4354;DHT22;11018;51.258;6.806;2023-03-23T09:00:20;15.20;32.90
4354;DHT22;11018;51.258;6.806;2023-03-23T09:02:48;15.00;33.70
4354;DHT22;11018;51.258;6.806;2023-03-23T09:05:16;15.00;33.90
4354;DHT22;11018;51.258;6.806;2023-03-23T09:07:46;14.90;34.60
4354;DHT22;11018;51.258;6.806;2023-03-23T09:10:13;15.10;33.40
4354;DHT22;11018;51.258;6.806;2023-03-23T09:12:40;14.90;33.70
4354;DHT22;11018;51.258;6.806;2023-03-23T09:15:08;15.00;33.00
4354;DHT22;11018;51.258;6.806;2023-03-23T09:17:39;15.00;33.80
4354;DHT22;11018;51.258;6.806;2023-03-23T09:20:06;15.10;33.00
4354;DHT22;11018;51.258;6.806;2023-03-23T09:22:39;15.20;32.80
4354;DHT22;11018;51.258;6.806;2023-03-23T09:25:07;15.40;32.20
4354;DHT22;11018;51.258;6.806;2023-03-23T09:27:34;15.50;32.10
4354;DHT22;11018;51.258;6.806;2023-03-23T09:30:03;15.50;31.40
4354;DHT22;11018;51.258;6.806;2023-03-23T09:32:35;15.30;31.90
4354;DHT22;11018;51.258;6.806;2023-03-23T09:35:01;15.20;32.20
4354;DHT22;11018;51.258;6.806;2023-03-23T09:37:27;15.20;33.00
4354;DHT22;11018;51.258;6.806;2023-03-23T09:39:53;15.00;33.10
4354;DHT22;11018;51.258;6.806;2023-03-23T09:48:03;15.00;32.30
4354;DHT22;11018;51.258;6.806;2023-03-23T09:50:33;15.10;32.40
4354;DHT22;11018;51.258;6.806;2023-03-23T09:53:14;15.10;32.40
4354;DHT22;11018;51.258;6.806;2023-03-23T09:55:42;15.00;32.20
4354;DHT22;11018;51.258;6.806;2023-03-23T09:58:34;14.90;32.80
4354;DHT22;11018;51.258;6.806;2023-03-23T10:03:49;13.40;49.80
4354;DHT22;11018;51.258;6.806;2023-03-23T10:06:18;12.30;62.70
4354;DHT22;11018;51.258;6.806;2023-03-23T10:08:55;11.90;72.30
4354;DHT22;11018;51.258;6.806;2023-03-23T10:17:12;11.30;88.00
4354;DHT22;11018;51.258;6.806;2023-03-23T10:22:12;11.20;93.40
4354;DHT22;11018;51.258;6.806;2023-03-23T10:24:48;11.30;90.40
4354;DHT22;11018;51.258;6.806;2023-03-23T10:30:22;11.30;87.10
4354;DHT22;11018;51.258;6.806;2023-03-23T10:32:55;11.40;91.20
4354;DHT22;11018;51.258;6.806;2023-03-23T10:38:19;11.50;84.50
4354;DHT22;11018;51.258;6.806;2023-03-23T10:40:54;11.30;90.80
4354;DHT22;11018;51.258;6.806;2023-03-23T10:43:20;11.20;90.60
4354;DHT22;11018;51.258;6.806;2023-03-23T10:46:01;11.10;92.60
4354;DHT22;11018;51.258;6.806;2023-03-23T10:48:36;11.00;94.00
4354;DHT22;11018;51.258;6.806;2023-03-23T10:51:05;11.10;93.50
4354;DHT22;11018;51.258;6.806;2023-03-23T10:53:45;11.20;92.00
4354;DHT22;11018;51.258;6.806;2023-03-23T10:56:25;11.20;89.70
4354;DHT22;11018;51.258;6.806;2023-03-23T10:58:51;11.20;90.30
4354;DHT22;11018;51.258;6.806;2023-03-23T11:01:19;11.30;90.20
4354;DHT22;11018;51.258;6.806;2023-03-23T11:03:47;11.30;88.20
4354;DHT22;11018;51.258;6.806;2023-03-23T11:06:32;11.10;89.90
4354;DHT22;11018;51.258;6.806;2023-03-23T11:09:12;11.10;90.70
4354;DHT22;11018;51.258;6.806;2023-03-23T11:11:40;11.30;91.30
4354;DHT22;11018;51.258;6.806;2023-03-23T11:14:20;11.60;86.90
4354;DHT22;11018;51.258;6.806;2023-03-23T11:16:55;11.60;87.10
4354;DHT22;11018;51.258;6.806;2023-03-23T11:19:24;11.50;88.80
4354;DHT22;11018;51.258;6.806;2023-03-23T11:24:26;11.50;86.80
4354;DHT22;11018;51.258;6.806;2023-03-23T11:26:52;11.80;84.60
4354;DHT22;11018;51.258;6.806;2023-03-23T11:29:24;11.90;85.00
4354;DHT22;11018;51.258;6.806;2023-03-23T11:31:53;12.20;79.10
4354;DHT22;11018;51.258;6.806;2023-03-23T11:34:32;12.60;75.30
4354;DHT22;11018;51.258;6.806;2023-03-23T11:37:06;12.60;71.70
4354;DHT22;11018;51.258;6.806;2023-03-23T11:39:35;12.50;71.90
4354;DHT22;11018;51.258;6.806;2023-03-23T11:42:17;12.40;79.40
4354;DHT22;11018;51.258;6.806;2023-03-23T11:44:44;12.20;78.60
4354;DHT22;11018;51.258;6.806;2023-03-23T11:47:27;12.40;78.50
4354;DHT22;11018;51.258;6.806;2023-03-23T11:50:00;12.50;80.00
4354;DHT22;11018;51.258;6.806;2023-03-23T11:52:51;12.70;81.70
4354;DHT22;11018;51.258;6.806;2023-03-23T11:55:23;13.00;81.20
4354;DHT22;11018;51.258;6.806;2023-03-23T11:57:51;13.10;77.60
4354;DHT22;11018;51.258;6.806;2023-03-23T12:00:19;12.80;79.70
4354;DHT22;11018;51.258;6.806;2023-03-23T12:02:55;12.80;76.30
4354;DHT22;11018;51.258;6.806;2023-03-23T12:08:30;13.30;71.90
4354;DHT22;11018;51.258;6.806;2023-03-23T12:11:22;13.00;74.80
4354;DHT22;11018;51.258;6.806;2023-03-23T12:14:04;12.80;81.70
4354;DHT22;11018;51.258;6.806;2023-03-23T12:19:31;13.20;72.20
4354;DHT22;11018;51.258;6.806;2023-03-23T12:24:38;13.20;81.20
4354;DHT22;11018;51.258;6.806;2023-03-23T12:27:32;13.60;75.10
4354;DHT22;11018;51.258;6.806;2023-03-23T12:38:53;13.70;68.30
4354;DHT22;11018;51.258;6.806;2023-03-23T12:41:17;13.60;71.70
4354;DHT22;11018;51.258;6.806;2023-03-23T12:43:52;13.30;80.20
4354;DHT22;11018;51.258;6.806;2023-03-23T12:49:20;14.00;70.40
4354;DHT22;11018;51.258;6.806;2023-03-23T12:54:42;14.00;71.20
4354;DHT22;11018;51.258;6.806;2023-03-23T12:57:16;14.10;72.50
4354;DHT22;11018;51.258;6.806;2023-03-23T13:05:43;14.40;70.60
4354;DHT22;11018;51.258;6.806;2023-03-23T13:08:18;14.60;64.20
4354;DHT22;11018;51.258;6.806;2023-03-23T13:10:53;14.80;67.90
4354;DHT22;11018;51.258;6.806;2023-03-23T13:13:26;14.90;69.20
4354;DHT22;11018;51.258;6.806;2023-03-23T13:16:15;15.30;67.50
4354;DHT22;11018;51.258;6.806;2023-03-23T13:18:56;15.40;67.90
4354;DHT22;11018;51.258;6.806;2023-03-23T13:21:32;15.40;63.60
4354;DHT22;11018;51.258;6.806;2023-03-23T13:24:09;15.60;58.00
4354;DHT22;11018;51.258;6.806;2023-03-23T13:26:43;15.70;58.90
4354;DHT22;11018;51.258;6.806;2023-03-23T13:29:22;15.90;55.30
4354;DHT22;11018;51.258;6.806;2023-03-23T13:32:04;15.70;55.90
4354;DHT22;11018;51.258;6.806;2023-03-23T13:34:31;15.30;61.80
4354;DHT22;11018;51.258;6.806;2023-03-23T13:37:05;15.10;63.90
4354;DHT22;11018;51.258;6.806;2023-03-23T13:39:37;15.00;63.10
4354;DHT22;11018;51.258;6.806;2023-03-23T13:44:42;14.80;67.00
4354;DHT22;11018;51.258;6.806;2023-03-23T13:49:57;14.40;71.20
4354;DHT22;11018;51.258;6.806;2023-03-23T13:52:36;14.40;73.30
4354;DHT22;11018;51.258;6.806;2023-03-23T14:03:14;14.40;72.50
4354;DHT22;11018;51.258;6.806;2023-03-23T14:05:44;14.20;77.60
4354;DHT22;11018;51.258;6.806;2023-03-23T14:11:00;14.00;81.30
4354;DHT22;11018;51.258;6.806;2023-03-23T14:13:41;14.20;79.70
4354;DHT22;11018;51.258;6.806;2023-03-23T14:16:19;14.20;79.50
4354;DHT22;11018;51.258;6.806;2023-03-23T14:21:42;15.00;77.00
4354;DHT22;11018;51.258;6.806;2023-03-23T14:24:19;16.00;67.50
4354;DHT22;11018;51.258;6.806;2023-03-23T14:26:46;17.10;53.40
4354;DHT22;11018;51.258;6.806;2023-03-23T14:29:13;17.70;46.70
4354;DHT22;11018;51.258;6.806;2023-03-23T14:31:39;18.10;42.00
4354;DHT22;11018;51.258;6.806;2023-03-23T14:34:19;17.40;41.60
4354;DHT22;11018;51.258;6.806;2023-03-23T14:36:46;16.90;41.70
4354;DHT22;11018;51.258;6.806;2023-03-23T14:39:14;16.50;43.40
4354;DHT22;11018;51.258;6.806;2023-03-23T14:41:42;16.30;42.70
4354;DHT22;11018;51.258;6.806;2023-03-23T14:44:24;16.00;45.50
4354;DHT22;11018;51.258;6.806;2023-03-23T14:46:50;16.00;46.60
4354;DHT22;11018;51.258;6.806;2023-03-23T14:49:19;15.80;47.40
4354;DHT22;11018;51.258;6.806;2023-03-23T14:51:51;15.90;43.40
4354;DHT22;11018;51.258;6.806;2023-03-23T14:54:22;16.00;43.90
4354;DHT22;11018;51.258;6.806;2023-03-23T14:56:48;16.30;42.30
4354;DHT22;11018;51.258;6.806;2023-03-23T14:59:14;16.30;42.20
4354;DHT22;11018;51.258;6.806;2023-03-23T15:01:40;16.20;43.20
4354;DHT22;11018;51.258;6.806;2023-03-23T15:04:26;16.20;43.10
4354;DHT22;11018;51.258;6.806;2023-03-23T15:07:00;16.10;44.90
4354;DHT22;11018;51.258;6.806;2023-03-23T15:09:26;16.10;45.90
4354;DHT22;11018;51.258;6.806;2023-03-23T15:12:00;16.00;47.70
4354;DHT22;11018;51.258;6.806;2023-03-23T15:14:44;16.10;46.20
4354;DHT22;11018;51.258;6.806;2023-03-23T15:17:22;16.30;47.10
4354;DHT22;11018;51.258;6.806;2023-03-23T15:19:50;17.30;37.90
4354;DHT22;11018;51.258;6.806;2023-03-23T15:22:24;18.00;35.10
4354;DHT22;11018;51.258;6.806;2023-03-23T15:25:11;18.60;33.10
4354;DHT22;11018;51.258;6.806;2023-03-23T15:27:43;19.10;27.60
4354;DHT22;11018;51.258;6.806;2023-03-23T15:30:31;19.50;25.70
4354;DHT22;11018;51.258;6.806;2023-03-23T15:33:08;19.50;24.50
4354;DHT22;11018;51.258;6.806;2023-03-23T15:35:37;19.60;25.00
4354;DHT22;11018;51.258;6.806;2023-03-23T15:38:05;19.50;25.90
4354;DHT22;11018;51.258;6.806;2023-03-23T15:40:37;19.60;23.60
4354;DHT22;11018;51.258;6.806;2023-03-23T15:43:20;19.80;23.80
4354;DHT22;11018;51.258;6.806;2023-03-23T15:46:21;19.80;24.00
4354;DHT22;11018;51.258;6.806;2023-03-23T15:51:26;19.50;24.30
4354;DHT22;11018;51.258;6.806;2023-03-23T15:53:53;19.30;25.60
4354;DHT22;11018;51.258;6.806;2023-03-23T15:56:19;19.30;25.20
4354;DHT22;11018;51.258;6.806;2023-03-23T15:58:45;19.20;25.20
4354;DHT22;11018;51.258;6.806;2023-03-23T16:01:14;18.80;26.80
4354;DHT22;11018;51.258;6.806;2023-03-23T16:03:48;18.70;27.40
4354;DHT22;11018;51.258;6.806;2023-03-23T16:06:16;18.40;29.30
4354;DHT22;11018;51.258;6.806;2023-03-23T16:08:42;18.60;29.10
4354;DHT22;11018;51.258;6.806;2023-03-23T16:11:17;18.60;29.70
4354;DHT22;11018;51.258;6.806;2023-03-23T16:13:43;18.50;28.90
4354;DHT22;11018;51.258;6.806;2023-03-23T16:16:16;18.20;30.80
4354;DHT22;11018;51.258;6.806;2023-03-23T16:18:42;18.30;30.20
4354;DHT22;11018;51.258;6.806;2023-03-23T16:21:08;18.30;29.70
4354;DHT22;11018;51.258;6.806;2023-03-23T16:23:34;17.80;31.10
4354;DHT22;11018;51.258;6.806;2023-03-23T16:25:59;17.40;33.60
4354;DHT22;11018;51.258;6.806;2023-03-23T16:28:25;17.20;35.40
4354;DHT22;11018;51.258;6.806;2023-03-23T16:30:51;17.00;35.60
4354;DHT22;11018;51.258;6.806;2023-03-23T16:33:17;16.90;36.00
4354;DHT22;11018;51.258;6.806;2023-03-23T16:35:43;17.00;35.90
4354;DHT22;11018;51.258;6.806;2023-03-23T16:38:16;16.30;36.90
4354;DHT22;11018;51.258;6.806;2023-03-23T16:40:45;16.20;39.30
4354;DHT22;11018;51.258;6.806;2023-03-23T16:43:12;16.20;39.70
4354;DHT22;11018;51.258;6.806;2023-03-23T16:45:40;16.30;39.20
4354;DHT22;11018;51.258;6.806;2023-03-23T16:48:06;16.20;40.30
4354;DHT22;11018;51.258;6.806;2023-03-23T16:50:32;16.00;40.80
4354;DHT22;11018;51.258;6.806;2023-03-23T16:52:58;16.00;41.00
4354;DHT22;11018;51.258;6.806;2023-03-23T16:55:24;15.80;41.70
4354;DHT22;11018;51.258;6.806;2023-03-23T16:57:52;15.80;40.20
4354;DHT22;11018;51.258;6.806;2023-03-23T17:00:18;15.70;40.00
4354;DHT22;11018;51.258;6.806;2023-03-23T17:02:48;15.70;39.30
4354;DHT22;11018;51.258;6.806;2023-03-23T17:05:17;15.70;38.20
4354;DHT22;11018;51.258;6.806;2023-03-23T17:07:43;15.70;36.80
4354;DHT22;11018;51.258;6.806;2023-03-23T17:10:11;15.50;37.90
4354;DHT22;11018;51.258;6.806;2023-03-23T17:12:37;15.50;37.00
4354;DHT22;11018;51.258;6.806;2023-03-23T17:15:04;15.50;36.40
4354;DHT22;11018;51.258;6.806;2023-03-23T17:17:31;15.50;36.30
4354;DHT22;11018;51.258;6.806;2023-03-23T17:19:56;15.50;35.90
4354;DHT22;11018;51.258;6.806;2023-03-23T17:22:22;15.50;34.80
4354;DHT22;11018;51.258;6.806;2023-03-23T17:24:48;15.60;34.20
4354;DHT22;11018;51.258;6.806;2023-03-23T17:27:18;15.50;34.00
4354;DHT22;11018;51.258;6.806;2023-03-23T17:29:44;15.40;34.20
4354;DHT22;11018;51.258;6.806;2023-03-23T17:32:10;15.50;33.00
4354;DHT22;11018;51.258;6.806;2023-03-23T17:34:36;15.40;32.80
4354;DHT22;11018;51.258;6.806;2023-03-23T17:37:02;15.40;33.00
4354;DHT22;11018;51.258;6.806;2023-03-23T17:39:29;15.20;33.50